Time;durP1;ratioP1;P1;durP2;ratioP2;P2;SDS_P1;SDS_P2;PMS_P1;PMS_P2;Temp;Humidity;BMP_temperature;BMP_pressure;BME280_temperature;BME280_humidity;BME280_pressure;Samples;Min_cycle;Max_cycle;Signal;HPM_P1;HPM_P2
2022/06/05 00:00:22;;;;;;;8.47;6.30;;;24.10;99.90;;;;;;4978732;28;20217;-65
2022/06/05 00:03:25;;;;;;;8.47;6.47;;;24.20;99.90;;;;;;4999597;28;20924;-65
2022/06/05 00:06:02;;;;;;;7.93;7.20;;;24.00;99.90;;;;;;4997961;28;20670;-65
2022/06/05 00:08:39;;;;;;;7.63;6.93;;;24.00;99.90;;;;;;5001678;28;20458;-65
2022/06/05 00:11:08;;;;;;;7.37;6.77;;;24.10;99.90;;;;;;5003041;28;20474;-64
2022/06/05 00:13:44;;;;;;;8.17;7.33;;;24.10;99.90;;;;;;4992148;28;20588;-65
2022/06/05 00:16:11;;;;;;;6.90;6.30;;;24.10;99.90;;;;;;5000874;28;20435;-65
2022/06/05 00:18:38;;;;;;;9.30;7.00;;;24.00;99.90;;;;;;5000784;28;20579;-65
2022/06/05 00:21:07;;;;;;;7.60;6.80;;;23.90;99.90;;;;;;5003799;28;20436;-65
2022/06/05 00:23:36;;;;;;;6.97;6.37;;;23.70;99.90;;;;;;5000297;28;20471;-65
2022/06/05 00:26:20;;;;;;;7.33;6.63;;;23.70;99.90;;;;;;4998500;28;20440;-64
2022/06/05 00:29:10;;;;;;;8.47;7.73;;;23.80;99.90;;;;;;4997984;28;21252;-65
2022/06/05 00:31:47;;;;;;;7.63;7.03;;;23.80;99.90;;;;;;4999035;28;20495;-64
2022/06/05 00:34:12;;;;;;;7.53;6.93;;;23.70;99.90;;;;;;5001150;28;20431;-64
2022/06/05 00:36:49;;;;;;;7.37;6.47;;;23.70;99.90;;;;;;5002446;28;20452;-65
2022/06/05 00:39:47;;;;;;;6.90;6.30;;;23.70;99.90;;;;;;4988684;28;20682;-65
2022/06/05 00:42:16;;;;;;;7.93;7.13;;;23.60;99.90;;;;;;4988246;28;20436;-64
2022/06/05 00:44:55;;;;;;;7.37;6.47;;;23.60;99.90;;;;;;5000754;28;20675;-64
2022/06/05 00:47:24;;;;;;;8.30;6.27;;;23.60;99.90;;;;;;5002171;28;20485;-65
2022/06/05 00:49:58;;;;;;;8.00;7.20;;;23.50;99.90;;;;;;5000767;28;20847;-65
2022/06/05 00:52:28;;;;;;;7.57;6.87;;;23.60;99.90;;;;;;4999851;28;21104;-64
2022/06/05 00:54:54;;;;;;;7.60;6.80;;;23.60;99.90;;;;;;5001722;28;20447;-66
2022/06/05 00:57:20;;;;;;;8.00;7.30;;;23.60;99.90;;;;;;5001097;28;20463;-64
2022/06/05 00:59:48;;;;;;;7.00;6.23;;;23.60;99.90;;;;;;5003386;28;20722;-64
2022/06/05 01:02:14;;;;;;;8.07;7.37;;;23.50;99.90;;;;;;4999384;28;20728;-64
2022/06/05 01:04:42;;;;;;;7.70;7.10;;;23.50;99.90;;;;;;5000021;28;20792;-64
2022/06/05 01:07:09;;;;;;;7.73;7.03;;;23.50;99.90;;;;;;5000523;28;20467;-64
2022/06/05 01:09:35;;;;;;;8.73;7.93;;;23.50;99.90;;;;;;5002750;28;20756;-63
2022/06/05 01:12:13;;;;;;;7.33;6.73;;;23.50;99.90;;;;;;4999444;28;20844;-65
2022/06/05 01:14:45;;;;;;;6.77;6.20;;;23.50;99.90;;;;;;4999107;28;20446;-65
2022/06/05 01:17:31;;;;;;;7.37;6.77;;;23.40;99.90;;;;;;5000529;28;20525;-66
2022/06/05 01:20:14;;;;;;;8.00;7.20;;;23.50;99.90;;;;;;4999967;28;20527;-64
2022/06/05 01:23:07;;;;;;;7.70;7.10;;;23.50;99.90;;;;;;4999287;28;20451;-64
2022/06/05 01:25:43;;;;;;;8.20;7.50;;;23.50;99.90;;;;;;4997569;28;20799;-65
2022/06/05 01:28:20;;;;;;;7.87;7.23;;;23.50;99.90;;;;;;4996574;28;20576;-66
2022/06/05 01:31:14;;;;;;;8.97;8.23;;;23.50;99.90;;;;;;5001373;28;20499;-65
2022/06/05 01:33:50;;;;;;;8.40;7.60;;;23.40;99.90;;;;;;4983586;28;20961;-65
2022/06/05 01:36:36;;;;;;;8.17;7.37;;;23.40;99.90;;;;;;5000356;28;20443;-65
2022/06/05 01:39:09;;;;;;;9.50;8.57;;;23.40;99.90;;;;;;4997344;28;20434;-65
2022/06/05 01:41:58;;;;;;;8.23;7.53;;;23.30;99.90;;;;;;4997388;28;20473;-65
2022/06/05 01:44:37;;;;;;;9.30;7.03;;;23.30;99.90;;;;;;4997329;28;20894;-65
2022/06/05 01:47:13;;;;;;;8.40;7.67;;;23.30;99.90;;;;;;4996729;28;20474;-66
2022/06/05 01:49:54;;;;;;;8.87;8.07;;;23.30;99.90;;;;;;4997025;28;20945;-66
2022/06/05 01:52:43;;;;;;;8.30;7.60;;;23.30;99.90;;;;;;4999240;28;20471;-66
2022/06/05 01:55:12;;;;;;;9.93;9.13;;;23.30;99.90;;;;;;5000051;28;20444;-66
2022/06/05 01:57:38;;;;;;;9.93;9.03;;;23.20;99.90;;;;;;4986534;28;20474;-66
2022/06/05 02:00:14;;;;;;;10.80;9.70;;;23.00;99.90;;;;;;4994644;28;20452;-65
2022/06/05 02:02:46;;;;;;;10.03;9.03;;;22.80;99.90;;;;;;5002644;28;20646;-65
2022/06/05 02:05:17;;;;;;;14.17;9.47;;;22.90;99.90;;;;;;4997743;28;20859;-64
2022/06/05 02:07:49;;;;;;;9.87;8.87;;;22.70;99.90;;;;;;5003195;28;20518;-65
2022/06/05 02:10:26;;;;;;;11.63;9.97;;;22.60;99.90;;;;;;5005109;28;20458;-64
2022/06/05 02:12:57;;;;;;;10.40;9.40;;;22.40;99.90;;;;;;5004695;28;21195;-64
2022/06/05 02:15:25;;;;;;;10.77;9.67;;;22.10;99.90;;;;;;4999189;28;20817;-64
2022/06/05 02:17:50;;;;;;;10.00;9.00;;;22.30;99.90;;;;;;5002017;28;20555;-64
2022/06/05 02:20:16;;;;;;;11.80;9.23;;;22.30;99.90;;;;;;4999676;28;20571;-65
2022/06/05 02:22:48;;;;;;;11.20;9.93;;;22.30;99.90;;;;;;5005336;28;20178;-64
2022/06/05 02:25:24;;;;;;;11.30;10.27;;;22.20;99.90;;;;;;5001964;28;20471;-64
2022/06/05 02:27:51;;;;;;;13.07;8.90;;;22.10;99.90;;;;;;5001286;28;20481;-65
2022/06/05 02:30:17;;;;;;;11.60;10.40;;;22.10;99.90;;;;;;4997228;28;20823;-65
2022/06/05 02:33:28;;;;;;;11.50;10.10;;;21.90;99.90;;;;;;5001551;28;20583;-66
2022/06/05 02:36:04;;;;;;;11.27;9.97;;;21.90;99.90;;;;;;4920923;29;20486;-65
2022/06/05 02:38:55;;;;;;;12.10;10.80;;;22.00;99.90;;;;;;4992727;28;20553;-65
2022/06/05 02:41:34;;;;;;;10.87;9.87;;;21.80;99.90;;;;;;4996396;28;20441;-64
2022/06/05 02:44:29;;;;;;;13.73;10.73;;;21.90;99.90;;;;;;4999267;28;20457;-65
2022/06/05 02:47:02;;;;;;;10.93;9.83;;;21.80;99.90;;;;;;5005384;28;20455;-65
2022/06/05 02:49:35;;;;;;;11.03;10.03;;;21.80;99.90;;;;;;5001593;28;21018;-65
2022/06/05 02:52:05;;;;;;;10.80;9.77;;;21.70;99.90;;;;;;5003729;28;20478;-65
2022/06/05 02:54:36;;;;;;;10.80;9.80;;;21.80;99.90;;;;;;4998293;28;20602;-64
2022/06/05 02:57:02;;;;;;;11.10;10.10;;;21.70;99.90;;;;;;4995941;28;20467;-64
2022/06/05 02:59:27;;;;;;;10.70;9.70;;;21.70;99.90;;;;;;4997957;28;20444;-64
2022/06/05 03:04:37;;;;;;;12.63;9.23;;;21.80;99.90;;;;;;4999487;28;20322;-64
2022/06/05 03:07:05;;;;;;;9.90;9.00;;;21.80;99.90;;;;;;4995127;28;20455;-64
2022/06/05 03:09:31;;;;;;;9.77;8.97;;;21.90;99.90;;;;;;4997489;28;20562;-64
2022/06/05 03:11:56;;;;;;;8.83;8.13;;;21.90;99.90;;;;;;4999762;28;20475;-65
2022/06/05 03:14:22;;;;;;;9.97;8.97;;;21.90;99.90;;;;;;5000042;28;20184;-65
2022/06/05 03:16:48;;;;;;;9.83;8.93;;;22.00;99.90;;;;;;4999307;28;20224;-65
2022/06/05 03:19:13;;;;;;;12.43;9.10;;;21.90;99.90;;;;;;4998663;28;20177;-65
2022/06/05 03:21:39;;;;;;;10.20;8.53;;;21.90;99.90;;;;;;4999558;28;20197;-65
2022/06/05 03:24:06;;;;;;;9.50;8.70;;;21.90;99.90;;;;;;4997718;28;20217;-65
2022/06/05 03:26:32;;;;;;;9.20;8.50;;;21.80;99.90;;;;;;4997398;28;20201;-65
2022/06/05 03:28:58;;;;;;;9.37;8.57;;;21.70;99.90;;;;;;4996278;28;20468;-65
2022/06/05 03:31:24;;;;;;;10.50;9.50;;;21.70;99.90;;;;;;4992307;28;20501;-64
2022/06/05 03:33:49;;;;;;;10.60;9.70;;;21.50;99.90;;;;;;4996156;28;20911;-65
2022/06/05 03:36:17;;;;;;;12.60;8.90;;;21.40;99.90;;;;;;5001441;28;20448;-65
2022/06/05 03:38:43;;;;;;;10.70;9.70;;;21.30;99.90;;;;;;4995552;28;20550;-65
2022/06/05 03:41:09;;;;;;;13.20;9.40;;;21.20;99.90;;;;;;4996639;28;20444;-65
2022/06/05 03:43:37;;;;;;;10.97;9.63;;;21.20;99.90;;;;;;4995059;28;20479;-65
2022/06/05 03:46:11;;;;;;;11.43;10.37;;;21.20;99.90;;;;;;4994612;28;20527;-65
2022/06/05 03:48:38;;;;;;;10.93;9.67;;;21.30;99.90;;;;;;4998060;28;20483;-65
2022/06/05 03:51:10;;;;;;;10.90;9.80;;;21.40;99.90;;;;;;4978019;28;20525;-65
2022/06/05 03:53:36;;;;;;;10.27;9.17;;;21.50;99.90;;;;;;5000662;28;20443;-65
2022/06/05 03:56:09;;;;;;;10.77;9.77;;;21.60;99.90;;;;;;4995173;28;20444;-65
2022/06/05 03:58:35;;;;;;;11.30;10.20;;;21.70;99.90;;;;;;4998799;28;20486;-65
2022/06/05 04:01:00;;;;;;;13.00;11.70;;;21.70;99.90;;;;;;4994074;28;20448;-65
2022/06/05 04:03:26;;;;;;;11.13;10.13;;;21.80;99.90;;;;;;4999234;28;20549;-65
2022/06/05 04:05:52;;;;;;;12.00;10.80;;;21.80;99.90;;;;;;4999321;28;20189;-65
2022/06/05 04:08:17;;;;;;;12.33;10.27;;;21.80;99.90;;;;;;5000168;28;20292;-65
2022/06/05 04:10:43;;;;;;;12.23;11.03;;;21.60;99.90;;;;;;4997381;28;20196;-65
2022/06/05 04:13:09;;;;;;;11.90;10.70;;;21.70;99.90;;;;;;4995799;28;20181;-65
2022/06/05 04:15:41;;;;;;;11.50;10.50;;;21.70;99.90;;;;;;5001527;28;20502;-66
2022/06/05 04:18:07;;;;;;;11.67;10.50;;;21.80;99.90;;;;;;5003705;28;20192;-66
2022/06/05 04:20:33;;;;;;;12.30;11.20;;;21.80;99.90;;;;;;4996765;28;20784;-65
2022/06/05 04:22:59;;;;;;;11.53;10.47;;;21.70;99.90;;;;;;4998451;28;20432;-65
2022/06/05 04:25:25;;;;;;;11.87;10.63;;;21.70;99.90;;;;;;4997029;28;20444;-65
2022/06/05 04:27:51;;;;;;;12.00;10.90;;;21.80;99.90;;;;;;5000393;28;20220;-65
2022/06/05 04:30:17;;;;;;;12.70;11.40;;;21.80;99.90;;;;;;4998349;28;20184;-66
2022/06/05 04:32:42;;;;;;;11.60;10.50;;;21.80;99.90;;;;;;4997192;28;20912;-65
2022/06/05 04:35:09;;;;;;;11.87;10.83;;;21.70;99.90;;;;;;4995806;28;20182;-65
2022/06/05 04:37:36;;;;;;;12.50;11.20;;;21.70;99.90;;;;;;5003709;28;20296;-65
2022/06/05 04:40:03;;;;;;;13.03;11.23;;;21.80;99.90;;;;;;4995099;28;20443;-66
2022/06/05 04:42:30;;;;;;;12.30;11.20;;;21.70;99.90;;;;;;4999014;28;20435;-66
2022/06/05 04:44:56;;;;;;;11.50;10.40;;;21.60;99.90;;;;;;4997647;28;20502;-66
2022/06/05 04:47:22;;;;;;;13.00;11.80;;;21.70;99.90;;;;;;5003168;28;20588;-66
2022/06/05 04:49:47;;;;;;;13.37;12.00;;;21.70;99.90;;;;;;5001918;28;21279;-65
2022/06/05 04:52:13;;;;;;;14.73;12.90;;;21.80;99.90;;;;;;5001168;28;20305;-65
2022/06/05 04:54:41;;;;;;;18.23;16.33;;;21.80;99.90;;;;;;5002870;28;20177;-65
2022/06/05 04:57:07;;;;;;;27.83;22.90;;;21.90;99.90;;;;;;4999347;28;20206;-66
2022/06/05 04:59:33;;;;;;;15.73;14.13;;;21.90;99.90;;;;;;5001849;28;20507;-65
2022/06/05 05:01:59;;;;;;;12.00;10.80;;;21.90;99.90;;;;;;4996702;28;22556;-65
2022/06/05 05:04:24;;;;;;;13.07;11.77;;;21.90;99.90;;;;;;4996589;28;20217;-65
2022/06/05 05:06:50;;;;;;;11.87;10.87;;;21.90;99.90;;;;;;4998867;28;20725;-65
2022/06/05 05:09:15;;;;;;;12.97;11.47;;;21.90;99.90;;;;;;5001741;28;20185;-65
2022/06/05 05:11:41;;;;;;;12.53;11.33;;;21.70;99.90;;;;;;4993994;28;20208;-64
2022/06/05 05:14:09;;;;;;;12.37;11.10;;;21.80;99.90;;;;;;5000158;28;20189;-64
2022/06/05 05:16:34;;;;;;;12.30;11.20;;;21.80;99.90;;;;;;4997091;28;20216;-64
2022/06/05 05:19:00;;;;;;;12.63;11.20;;;21.80;99.90;;;;;;5000981;28;20471;-64
2022/06/05 05:21:26;;;;;;;11.27;10.10;;;21.90;99.90;;;;;;4998147;28;20252;-64
2022/06/05 05:23:53;;;;;;;16.07;14.40;;;21.90;99.90;;;;;;4996378;28;20182;-64
2022/06/05 05:26:22;;;;;;;14.70;13.30;;;22.00;99.90;;;;;;4997168;28;20439;-64
2022/06/05 05:28:48;;;;;;;13.57;12.27;;;22.00;99.90;;;;;;4982634;28;20447;-63
2022/06/05 05:31:18;;;;;;;12.10;10.17;;;22.00;99.90;;;;;;4995486;28;20468;-63
2022/06/05 05:33:43;;;;;;;13.47;12.17;;;22.00;99.90;;;;;;4998562;28;20464;-64
2022/06/05 05:36:10;;;;;;;11.57;10.47;;;22.10;99.90;;;;;;4998905;28;20785;-65
2022/06/05 05:38:37;;;;;;;11.70;10.70;;;22.10;99.90;;;;;;5001681;28;20194;-65
2022/06/05 05:43:47;;;;;;;12.97;11.67;;;22.10;99.90;;;;;;4998943;28;20447;-64
2022/06/05 05:46:14;;;;;;;13.23;11.80;;;22.10;99.90;;;;;;5000804;28;20440;-64
2022/06/05 05:48:40;;;;;;;12.30;11.10;;;22.10;99.90;;;;;;5004608;28;20259;-65
2022/06/05 05:51:11;;;;;;;12.60;11.50;;;22.10;99.90;;;;;;4984366;28;20479;-64
2022/06/05 05:53:37;;;;;;;12.20;10.27;;;22.10;99.90;;;;;;5001451;28;20428;-65
2022/06/05 05:56:10;;;;;;;12.30;11.10;;;22.20;99.90;;;;;;5000310;28;20440;-65
2022/06/05 05:58:37;;;;;;;12.87;11.60;;;22.10;99.90;;;;;;5001050;28;20274;-65
2022/06/05 06:01:08;;;;;;;12.90;11.80;;;22.20;99.90;;;;;;5002436;28;20439;-65
2022/06/05 06:03:34;;;;;;;12.03;10.83;;;22.30;99.90;;;;;;5002359;28;20530;-66
2022/06/05 06:06:01;;;;;;;12.47;11.37;;;22.30;99.90;;;;;;5001245;28;20451;-64
2022/06/05 06:08:30;;;;;;;12.87;11.77;;;22.40;99.90;;;;;;4999746;28;20471;-66
2022/06/05 06:10:56;;;;;;;12.80;11.63;;;22.50;99.90;;;;;;5000484;28;20567;-65
2022/06/05 06:13:22;;;;;;;13.63;12.23;;;22.50;99.90;;;;;;5002050;28;20435;-65
2022/06/05 06:15:49;;;;;;;14.03;12.80;;;22.50;99.90;;;;;;5003060;28;20169;-64
2022/06/05 06:18:15;;;;;;;13.57;12.40;;;22.60;99.90;;;;;;4999195;28;20502;-64
2022/06/05 06:20:40;;;;;;;14.80;12.83;;;22.50;99.90;;;;;;4994610;28;20444;-65
2022/06/05 06:23:06;;;;;;;12.97;11.67;;;22.50;99.90;;;;;;5005332;28;21310;-64
2022/06/05 06:25:32;;;;;;;12.70;11.43;;;22.50;99.90;;;;;;5004646;28;20235;-65
2022/06/05 06:27:57;;;;;;;12.10;11.10;;;22.50;99.90;;;;;;4999424;28;20218;-64
2022/06/05 06:30:23;;;;;;;12.30;11.07;;;22.60;99.90;;;;;;4996264;28;20185;-64
2022/06/05 06:32:48;;;;;;;11.90;10.83;;;22.60;99.90;;;;;;4997552;28;20209;-66
2022/06/05 06:35:14;;;;;;;10.63;9.63;;;22.60;99.90;;;;;;4998192;28;20815;-66
2022/06/05 06:37:40;;;;;;;11.90;10.60;;;22.70;99.90;;;;;;4998545;28;20197;-66
2022/06/05 06:40:06;;;;;;;12.30;11.20;;;22.60;99.90;;;;;;4998066;28;20178;-66
2022/06/05 06:42:31;;;;;;;11.23;10.20;;;22.60;99.90;;;;;;4999174;28;20181;-65
2022/06/05 06:44:57;;;;;;;17.37;12.00;;;22.60;99.90;;;;;;4995916;28;20432;-65
2022/06/05 06:47:23;;;;;;;16.30;14.60;;;22.70;99.90;;;;;;4996805;28;20236;-65
2022/06/05 06:49:49;;;;;;;11.47;10.27;;;22.70;99.90;;;;;;5002424;28;20565;-65
2022/06/05 06:52:15;;;;;;;11.53;10.53;;;22.70;99.90;;;;;;4996217;28;20490;-65
2022/06/05 06:54:41;;;;;;;14.10;11.20;;;22.80;99.90;;;;;;4995567;28;20183;-64
2022/06/05 06:57:08;;;;;;;12.13;10.80;;;22.70;99.90;;;;;;5001965;28;20456;-65
2022/06/05 06:59:33;;;;;;;10.83;9.83;;;22.70;99.90;;;;;;5000202;28;20440;-65
2022/06/05 07:01:59;;;;;;;12.63;11.40;;;22.70;99.90;;;;;;4996833;28;20496;-65
2022/06/05 07:04:25;;;;;;;11.27;10.17;;;22.60;99.90;;;;;;4998229;28;20188;-65
2022/06/05 07:06:51;;;;;;;10.87;9.87;;;22.60;99.90;;;;;;4996696;28;20217;-64
2022/06/05 07:09:18;;;;;;;13.00;11.80;;;22.50;99.90;;;;;;4976818;28;20432;-65
2022/06/05 07:11:44;;;;;;;10.37;9.47;;;22.40;99.90;;;;;;4997805;28;20491;-64
2022/06/05 07:14:10;;;;;;;9.93;9.03;;;22.50;99.90;;;;;;4995132;28;20440;-64
2022/06/05 07:16:36;;;;;;;10.30;8.87;;;22.40;99.90;;;;;;4998822;28;20455;-65
2022/06/05 07:19:02;;;;;;;9.93;8.57;;;22.50;99.90;;;;;;5001963;28;20481;-64
2022/06/05 07:21:28;;;;;;;9.43;8.50;;;22.50;99.90;;;;;;4985331;28;20424;-65
2022/06/05 07:23:55;;;;;;;9.10;8.30;;;22.40;99.90;;;;;;5001533;28;20267;-64
2022/06/05 07:26:23;;;;;;;9.53;8.63;;;22.30;99.90;;;;;;4996517;28;20436;-65
2022/06/05 07:28:49;;;;;;;8.83;8.00;;;22.40;99.90;;;;;;5000755;28;20443;-65
2022/06/05 07:31:17;;;;;;;9.03;8.03;;;22.20;99.90;;;;;;5001967;28;20468;-65
2022/06/05 07:33:42;;;;;;;8.67;7.90;;;22.10;99.90;;;;;;5001087;28;20463;-65
2022/06/05 07:36:12;;;;;;;9.10;8.30;;;22.30;99.90;;;;;;5001065;28;20486;-64
2022/06/05 07:38:38;;;;;;;9.10;8.30;;;22.40;99.90;;;;;;5000728;28;20550;-63
2022/06/05 07:41:06;;;;;;;10.80;8.60;;;22.50;99.90;;;;;;5000075;28;20481;-64
2022/06/05 07:43:32;;;;;;;9.80;9.00;;;22.50;99.90;;;;;;4996314;28;20532;-64
2022/06/05 07:46:03;;;;;;;8.27;7.53;;;22.70;99.90;;;;;;4999522;28;20489;-64
2022/06/05 07:48:29;;;;;;;9.40;7.77;;;22.70;99.90;;;;;;4996307;28;20463;-63
2022/06/05 07:56:37;;;;;;;8.83;8.03;;;22.90;99.90;;;;;;4995037;28;21091;-64
2022/06/05 07:59:03;;;;;;;9.20;8.47;;;23.00;99.90;;;;;;5003614;28;20430;-64
2022/06/05 08:01:29;;;;;;;9.47;8.70;;;22.80;99.90;;;;;;4993065;28;20433;-63
2022/06/05 08:03:55;;;;;;;11.10;8.23;;;22.80;99.90;;;;;;4994660;28;20186;-64
2022/06/05 08:06:20;;;;;;;9.17;8.30;;;22.80;99.90;;;;;;4980858;28;20553;-62
2022/06/05 08:08:46;;;;;;;8.67;7.77;;;23.00;99.90;;;;;;4990561;28;20181;-64
2022/06/05 08:11:12;;;;;;;9.07;8.27;;;23.10;99.90;;;;;;4997187;28;20212;-63
2022/06/05 08:13:37;;;;;;;9.90;8.90;;;23.10;99.90;;;;;;4996251;28;20186;-64
2022/06/05 08:16:04;;;;;;;8.03;7.33;;;23.10;99.90;;;;;;4996641;28;20181;-63
2022/06/05 08:18:29;;;;;;;11.30;7.60;;;23.20;99.90;;;;;;4996649;28;20274;-64
2022/06/05 08:20:55;;;;;;;8.93;8.13;;;23.30;99.90;;;;;;4996045;28;20949;-64
2022/06/05 08:23:22;;;;;;;8.20;7.43;;;23.40;99.90;;;;;;4997803;28;21458;-64
2022/06/05 08:25:47;;;;;;;7.87;6.87;;;23.50;99.90;;;;;;4999029;28;20231;-64
2022/06/05 08:28:13;;;;;;;7.87;7.17;;;23.60;99.90;;;;;;4996964;28;20957;-67
2022/06/05 08:30:39;;;;;;;8.07;7.30;;;23.80;99.90;;;;;;4998572;28;20173;-66
2022/06/05 08:33:05;;;;;;;7.37;6.70;;;23.90;99.90;;;;;;4999341;28;20185;-66
2022/06/05 08:35:31;;;;;;;7.30;6.70;;;23.90;99.90;;;;;;5003067;28;20181;-66
2022/06/05 08:44:03;;;;;;;7.80;6.67;;;24.10;99.90;;;;;;4996944;28;20959;-66
2022/06/05 08:46:36;;;;;;;7.93;7.23;;;24.20;99.90;;;;;;4999624;28;20449;-66
2022/06/05 08:49:14;;;;;;;9.37;8.17;;;24.20;99.90;;;;;;5001758;28;21495;-66
2022/06/05 08:51:57;;;;;;;8.60;7.80;;;24.00;99.90;;;;;;4999814;28;20587;-66
2022/06/05 08:54:40;;;;;;;8.30;6.93;;;24.00;99.90;;;;;;4999249;28;20456;-65
2022/06/05 08:57:16;;;;;;;7.10;6.40;;;24.10;99.90;;;;;;4999079;28;20487;-66
2022/06/05 08:59:49;;;;;;;7.13;6.53;;;24.20;99.90;;;;;;4998829;28;20431;-65
2022/06/05 09:02:21;;;;;;;8.13;7.43;;;24.10;99.90;;;;;;4999597;28;20469;-66
2022/06/05 09:05:04;;;;;;;7.57;6.90;;;24.20;99.90;;;;;;5005366;28;20559;-66
2022/06/05 09:07:53;;;;;;;8.60;7.80;;;24.20;99.90;;;;;;5001698;28;20460;-66
2022/06/05 09:10:25;;;;;;;9.50;8.60;;;24.10;99.90;;;;;;4999364;28;20502;-66
2022/06/05 09:12:54;;;;;;;10.80;9.70;;;24.10;99.90;;;;;;4997605;28;20471;-65
2022/06/05 09:15:45;;;;;;;11.97;10.93;;;24.10;99.90;;;;;;4998952;28;20518;-64
2022/06/05 09:18:19;;;;;;;15.23;11.67;;;23.80;99.90;;;;;;5003077;28;20456;-65
2022/06/05 09:20:51;;;;;;;12.50;11.40;;;23.70;99.90;;;;;;5001674;28;20432;-64
2022/06/05 09:23:39;;;;;;;13.30;12.00;;;23.70;99.90;;;;;;5004261;28;20424;-64
2022/06/05 09:26:18;;;;;;;13.60;12.40;;;23.70;99.90;;;;;;5006691;28;20959;-63
2022/06/05 09:29:12;;;;;;;14.87;13.67;;;23.80;99.90;;;;;;4999820;28;20427;-64
2022/06/05 09:32:01;;;;;;;15.37;13.87;;;23.70;99.90;;;;;;5002240;28;20567;-64
2022/06/05 09:34:40;;;;;;;15.73;14.23;;;23.60;99.90;;;;;;4997166;28;20433;-65
2022/06/05 09:37:22;;;;;;;17.93;16.13;;;23.50;99.90;;;;;;5000161;28;20463;-64
2022/06/05 09:40:02;;;;;;;16.40;14.80;;;23.60;99.90;;;;;;4996937;28;20428;-64
2022/06/05 09:42:44;;;;;;;18.27;16.67;;;23.60;99.90;;;;;;5000734;28;20809;-65
2022/06/05 09:45:48;;;;;;;16.80;15.30;;;23.80;99.90;;;;;;4999315;28;20436;-64
2022/06/05 09:48:33;;;;;;;17.47;15.70;;;24.00;99.90;;;;;;4976593;28;21040;-65
2022/06/05 09:51:00;;;;;;;16.50;15.00;;;24.10;99.90;;;;;;4998818;28;20494;-65
2022/06/05 09:53:42;;;;;;;17.33;15.53;;;24.20;99.90;;;;;;4998379;28;20452;-64
2022/06/05 09:59:35;;;;;;;17.30;15.70;;;24.20;99.90;;;;;;4996926;28;20443;-64
2022/06/05 10:02:04;;;;;;;16.30;14.90;;;24.30;99.90;;;;;;4994928;28;20450;-64
2022/06/05 10:04:32;;;;;;;16.23;14.70;;;24.30;99.90;;;;;;4996977;28;20521;-64
2022/06/05 10:07:06;;;;;;;14.80;13.47;;;24.30;99.90;;;;;;4999568;28;20468;-64
2022/06/05 10:09:32;;;;;;;14.37;13.00;;;24.40;99.90;;;;;;4999491;28;20450;-65
2022/06/05 10:12:03;;;;;;;14.43;13.13;;;24.40;99.90;;;;;;5004977;28;20817;-65
2022/06/05 10:14:57;;;;;;;14.77;13.47;;;24.50;99.90;;;;;;5004343;28;20452;-64
2022/06/05 10:17:40;;;;;;;12.47;11.37;;;24.80;99.90;;;;;;5002480;28;20897;-64
2022/06/05 10:20:40;;;;;;;12.43;11.23;;;24.90;99.90;;;;;;5001598;28;20464;-65
2022/06/05 10:23:35;;;;;;;11.30;10.10;;;24.70;99.90;;;;;;5002228;28;20467;-64
2022/06/05 10:26:13;;;;;;;12.03;10.83;;;24.80;99.90;;;;;;5006252;28;20562;-64
2022/06/05 10:28:41;;;;;;;12.43;11.10;;;24.90;99.90;;;;;;5000725;28;20549;-64
2022/06/05 10:31:22;;;;;;;11.83;10.83;;;25.10;99.90;;;;;;4998285;28;20980;-64
2022/06/05 10:34:01;;;;;;;11.00;9.90;;;25.20;99.90;;;;;;5001869;28;20443;-65
2022/06/05 10:36:49;;;;;;;10.67;9.77;;;25.30;99.90;;;;;;5000834;28;20796;-65
2022/06/05 10:39:31;;;;;;;13.10;10.63;;;25.20;99.90;;;;;;5003376;28;20448;-65
2022/06/05 10:41:57;;;;;;;10.97;10.07;;;25.30;99.90;;;;;;5004917;28;20598;-65
2022/06/05 10:44:57;;;;;;;12.10;9.77;;;25.10;99.90;;;;;;5003391;28;20550;-64
2022/06/05 10:47:42;;;;;;;11.50;10.40;;;25.30;99.90;;;;;;4998759;28;20614;-64
2022/06/05 10:50:13;;;;;;;10.70;9.70;;;25.40;99.90;;;;;;5001808;28;20973;-65
2022/06/05 10:53:04;;;;;;;10.60;9.50;;;25.60;99.90;;;;;;5000913;28;20820;-65
2022/06/05 10:56:00;;;;;;;9.10;8.30;;;25.60;99.90;;;;;;5003965;28;20428;-65
2022/06/05 10:58:41;;;;;;;9.27;8.37;;;25.80;99.90;;;;;;5001480;28;20460;-64
2022/06/05 11:01:12;;;;;;;11.83;8.00;;;25.80;99.90;;;;;;5000684;28;20492;-64
2022/06/05 11:03:58;;;;;;;9.30;8.50;;;25.80;99.90;;;;;;5001155;28;20451;-65
2022/06/05 11:06:30;;;;;;;9.13;8.43;;;25.80;99.90;;;;;;5002729;28;20479;-65
2022/06/05 11:09:12;;;;;;;9.80;8.50;;;25.90;99.90;;;;;;5002326;28;20451;-65
2022/06/05 11:15:09;;;;;;;9.67;8.77;;;26.00;99.90;;;;;;5003566;28;20447;-65
2022/06/05 11:17:54;;;;;;;8.97;8.07;;;26.00;99.90;;;;;;5003805;28;21003;-64
2022/06/05 11:20:26;;;;;;;9.40;8.50;;;26.20;99.90;;;;;;5000742;28;20920;-64
2022/06/05 11:22:54;;;;;;;9.63;8.40;;;26.10;99.90;;;;;;5002765;28;20424;-65
2022/06/05 11:25:36;;;;;;;9.93;7.93;;;26.20;99.90;;;;;;5000654;28;20788;-64
2022/06/05 11:28:35;;;;;;;9.37;8.40;;;26.40;99.90;;;;;;5000783;28;20565;-64
2022/06/05 11:31:42;;;;;;;8.30;7.47;;;26.40;99.90;;;;;;5004157;28;20804;-65
2022/06/05 11:34:36;;;;;;;7.97;7.17;;;26.40;99.90;;;;;;5001592;28;20470;-64
2022/06/05 11:37:16;;;;;;;7.40;6.57;;;26.60;99.90;;;;;;5004273;28;20553;-64
2022/06/05 11:40:00;;;;;;;7.27;6.67;;;27.00;99.90;;;;;;5002698;28;20831;-64
2022/06/05 11:42:45;;;;;;;7.60;6.90;;;27.20;99.90;;;;;;5002352;28;20498;-65
2022/06/05 11:45:37;;;;;;;7.57;6.87;;;27.20;99.90;;;;;;4984735;28;20530;-65
2022/06/05 11:48:17;;;;;;;6.60;6.00;;;27.20;99.90;;;;;;5000565;28;20475;-65
2022/06/05 11:50:48;;;;;;;4.63;3.90;;;27.00;99.90;;;;;;5003188;28;20961;-65
2022/06/05 11:53:40;;;;;;;4.70;3.30;;;26.20;99.90;;;;;;5003927;28;20428;-64
2022/06/05 11:56:26;;;;;;;5.90;3.40;;;25.90;99.90;;;;;;4998346;28;20879;-64
2022/06/05 11:59:17;;;;;;;3.77;3.10;;;25.70;99.90;;;;;;5003316;28;20439;-65
2022/06/05 12:01:50;;;;;;;3.50;2.90;;;25.10;99.90;;;;;;5000137;28;20909;-64
2022/06/05 12:04:15;;;;;;;3.00;2.70;;;24.50;99.90;;;;;;4996869;28;20453;-65
2022/06/05 12:06:46;;;;;;;4.70;3.70;;;24.50;99.90;;;;;;5000887;28;21077;-65
2022/06/05 12:09:28;;;;;;;7.80;3.87;;;24.10;99.90;;;;;;5000555;28;20710;-64
2022/06/05 12:12:05;;;;;;;4.13;3.23;;;24.00;99.90;;;;;;5005470;28;21064;-65
2022/06/05 12:14:33;;;;;;;7.17;3.63;;;24.20;99.90;;;;;;4999381;28;20469;-64
2022/06/05 12:17:18;;;;;;;3.43;3.13;;;24.40;99.90;;;;;;5000311;28;20483;-65
2022/06/05 12:20:03;;;;;;;4.70;3.37;;;24.20;99.90;;;;;;4998950;28;20527;-65
2022/06/05 12:22:54;;;;;;;5.30;3.40;;;24.30;99.90;;;;;;5001402;28;20881;-64
2022/06/05 12:25:23;;;;;;;4.10;3.70;;;24.50;99.90;;;;;;5000818;28;20444;-64
2022/06/05 12:28:11;;;;;;;3.87;3.47;;;24.60;99.90;;;;;;4998463;28;20861;-64
2022/06/05 12:30:50;;;;;;;5.23;3.27;;;24.50;99.90;;;;;;5001121;28;20824;-64
2022/06/05 12:33:18;;;;;;;4.17;3.43;;;24.50;99.90;;;;;;4998216;28;20456;-64
2022/06/05 12:35:52;;;;;;;3.90;3.23;;;24.50;99.90;;;;;;5004029;28;20435;-65
2022/06/05 12:38:32;;;;;;;6.57;3.37;;;24.30;99.90;;;;;;5002779;28;20452;-63
2022/06/05 12:41:10;;;;;;;3.83;3.43;;;24.20;99.90;;;;;;5006285;28;20933;-64
2022/06/05 12:43:57;;;;;;;4.90;3.10;;;24.10;99.90;;;;;;5001399;28;20792;-64
2022/06/05 12:46:33;;;;;;;3.80;2.97;;;24.00;99.90;;;;;;5003633;28;21004;-64
2022/06/05 12:49:12;;;;;;;3.80;2.90;;;23.70;99.90;;;;;;5006103;28;20444;-64
2022/06/05 12:51:47;;;;;;;4.90;3.20;;;23.70;99.90;;;;;;5004889;28;20495;-64
2022/06/05 12:54:41;;;;;;;4.73;2.93;;;23.70;99.90;;;;;;5003067;28;20435;-64
2022/06/05 12:57:14;;;;;;;3.57;2.90;;;24.00;99.90;;;;;;5000299;28;20460;-64
2022/06/05 13:00:06;;;;;;;5.13;2.90;;;24.70;99.90;;;;;;5003293;28;20470;-64
2022/06/05 13:02:46;;;;;;;5.33;2.80;;;25.10;99.90;;;;;;5004895;28;20452;-64
2022/06/05 13:05:32;;;;;;;5.20;2.67;;;24.90;99.90;;;;;;5002735;28;20793;-64
2022/06/05 13:08:24;;;;;;;3.40;3.10;;;24.70;99.90;;;;;;5005051;28;20878;-64
2022/06/05 13:11:10;;;;;;;5.30;3.30;;;24.70;99.90;;;;;;5004500;28;20746;-64
2022/06/05 13:13:55;;;;;;;3.13;2.80;;;24.60;99.90;;;;;;5006987;28;20893;-64
2022/06/05 13:16:40;;;;;;;3.93;3.10;;;24.60;99.90;;;;;;5005196;28;20423;-64
2022/06/05 13:19:41;;;;;;;4.13;2.77;;;24.70;99.90;;;;;;4999622;28;20420;-64
2022/06/05 13:22:32;;;;;;;4.73;2.90;;;24.90;99.90;;;;;;4987827;28;20467;-64
2022/06/05 13:25:21;;;;;;;3.23;2.70;;;25.00;99.90;;;;;;4994531;28;20588;-67
2022/06/05 13:27:53;;;;;;;6.67;3.27;;;25.30;99.90;;;;;;4995601;28;20835;-65
2022/06/05 13:30:22;;;;;;;3.57;2.67;;;25.50;99.90;;;;;;5000198;28;20475;-65
2022/06/05 13:33:00;;;;;;;3.77;2.50;;;25.70;99.90;;;;;;4996069;28;20478;-66